sensor_id;sensor_type;location;lat;lon;timestamp;temperature;humidity
44435;DHT22;30138;20.964;105.830;2023-06-19T00:02:02;29.90;78.00
44435;DHT22;30138;20.964;105.830;2023-06-19T00:07:12;29.90;78.20
44435;DHT22;30138;20.964;105.830;2023-06-19T00:12:20;29.90;78.40
44435;DHT22;30138;20.964;105.830;2023-06-19T00:17:28;30.00;78.80
44435;DHT22;30138;20.964;105.830;2023-06-19T00:22:37;30.00;78.60
44435;DHT22;30138;20.964;105.830;2023-06-19T00:27:45;30.00;78.60
44435;DHT22;30138;20.964;105.830;2023-06-19T00:32:52;30.00;78.70
44435;DHT22;30138;20.964;105.830;2023-06-19T00:38:03;30.10;78.80
44435;DHT22;30138;20.964;105.830;2023-06-19T00:43:12;30.10;78.90
44435;DHT22;30138;20.964;105.830;2023-06-19T00:48:20;30.20;79.00
44435;DHT22;30138;20.964;105.830;2023-06-19T00:53:31;30.20;79.10
44435;DHT22;30138;20.964;105.830;2023-06-19T00:58:39;30.20;79.20
44435;DHT22;30138;20.964;105.830;2023-06-19T01:03:48;30.20;79.20
44435;DHT22;30138;20.964;105.830;2023-06-19T01:09:01;30.20;79.20
44435;DHT22;30138;20.964;105.830;2023-06-19T01:14:17;30.30;79.50
44435;DHT22;30138;20.964;105.830;2023-06-19T01:19:34;30.30;79.60
44435;DHT22;30138;20.964;105.830;2023-06-19T01:24:44;30.30;79.70
44435;DHT22;30138;20.964;105.830;2023-06-19T01:29:53;30.30;79.80
44435;DHT22;30138;20.964;105.830;2023-06-19T01:35:01;30.40;80.00
44435;DHT22;30138;20.964;105.830;2023-06-19T01:40:12;30.30;80.10
44435;DHT22;30138;20.964;105.830;2023-06-19T01:45:19;30.40;80.30
44435;DHT22;30138;20.964;105.830;2023-06-19T01:50:27;30.40;80.50
44435;DHT22;30138;20.964;105.830;2023-06-19T01:55:36;30.40;80.60
44435;DHT22;30138;20.964;105.830;2023-06-19T02:00:43;30.40;80.80
44435;DHT22;30138;20.964;105.830;2023-06-19T02:05:51;30.40;80.80
44435;DHT22;30138;20.964;105.830;2023-06-19T02:11:01;30.50;81.10
44435;DHT22;30138;20.964;105.830;2023-06-19T02:16:09;30.50;81.20
44435;DHT22;30138;20.964;105.830;2023-06-19T02:21:17;30.50;82.00
44435;DHT22;30138;20.964;105.830;2023-06-19T02:26:27;30.50;81.30
44435;DHT22;30138;20.964;105.830;2023-06-19T02:31:34;30.50;81.50
44435;DHT22;30138;20.964;105.830;2023-06-19T02:36:42;30.50;81.60
44435;DHT22;30138;20.964;105.830;2023-06-19T02:41:53;30.50;81.70
44435;DHT22;30138;20.964;105.830;2023-06-19T02:47:05;30.50;81.90
44435;DHT22;30138;20.964;105.830;2023-06-19T02:52:12;30.50;82.00
44435;DHT22;30138;20.964;105.830;2023-06-19T02:57:24;30.50;82.00
44435;DHT22;30138;20.964;105.830;2023-06-19T03:02:33;30.60;82.20
44435;DHT22;30138;20.964;105.830;2023-06-19T03:07:46;30.60;82.40
44435;DHT22;30138;20.964;105.830;2023-06-19T03:12:57;30.60;82.30
44435;DHT22;30138;20.964;105.830;2023-06-19T03:18:04;30.60;82.50
44435;DHT22;30138;20.964;105.830;2023-06-19T03:23:15;30.70;82.70
44435;DHT22;30138;20.964;105.830;2023-06-19T03:28:24;30.70;82.80
44435;DHT22;30138;20.964;105.830;2023-06-19T03:33:34;30.70;82.90
44435;DHT22;30138;20.964;105.830;2023-06-19T03:38:44;30.70;83.00
44435;DHT22;30138;20.964;105.830;2023-06-19T03:43:59;30.70;83.00
44435;DHT22;30138;20.964;105.830;2023-06-19T03:49:07;30.70;83.10
44435;DHT22;30138;20.964;105.830;2023-06-19T03:54:14;30.80;83.30
44435;DHT22;30138;20.964;105.830;2023-06-19T03:59:24;30.80;83.40
44435;DHT22;30138;20.964;105.830;2023-06-19T04:04:32;30.80;83.50
44435;DHT22;30138;20.964;105.830;2023-06-19T04:09:41;30.80;83.50
44435;DHT22;30138;20.964;105.830;2023-06-19T04:14:50;30.80;83.60
44435;DHT22;30138;20.964;105.830;2023-06-19T04:19:59;30.80;83.60
44435;DHT22;30138;20.964;105.830;2023-06-19T04:25:10;30.90;83.80
44435;DHT22;30138;20.964;105.830;2023-06-19T04:30:19;30.90;83.80
44435;DHT22;30138;20.964;105.830;2023-06-19T04:35:26;30.90;83.80
44435;DHT22;30138;20.964;105.830;2023-06-19T04:40:36;30.90;84.00
44435;DHT22;30138;20.964;105.830;2023-06-19T04:45:48;30.90;84.10
44435;DHT22;30138;20.964;105.830;2023-06-19T04:50:56;30.90;83.60
44435;DHT22;30138;20.964;105.830;2023-06-19T04:56:04;30.80;71.90
44435;DHT22;30138;20.964;105.830;2023-06-19T05:01:13;30.60;65.40
44435;DHT22;30138;20.964;105.830;2023-06-19T05:06:26;30.40;63.80
44435;DHT22;30138;20.964;105.830;2023-06-19T05:11:33;30.20;63.60
44435;DHT22;30138;20.964;105.830;2023-06-19T05:16:42;30.10;59.10
44435;DHT22;30138;20.964;105.830;2023-06-19T05:21:49;29.90;61.60
44435;DHT22;30138;20.964;105.830;2023-06-19T05:26:57;29.80;57.10
44435;DHT22;30138;20.964;105.830;2023-06-19T05:32:07;29.60;59.30
44435;DHT22;30138;20.964;105.830;2023-06-19T05:37:14;29.50;57.00
44435;DHT22;30138;20.964;105.830;2023-06-19T05:42:22;29.50;57.20
44435;DHT22;30138;20.964;105.830;2023-06-19T05:47:33;29.40;57.80
44435;DHT22;30138;20.964;105.830;2023-06-19T05:52:40;29.30;56.70
44435;DHT22;30138;20.964;105.830;2023-06-19T05:57:48;29.20;59.60
44435;DHT22;30138;20.964;105.830;2023-06-19T06:02:57;29.10;56.80
44435;DHT22;30138;20.964;105.830;2023-06-19T06:08:05;29.00;59.90
44435;DHT22;30138;20.964;105.830;2023-06-19T06:13:12;29.00;56.10
44435;DHT22;30138;20.964;105.830;2023-06-19T06:18:21;29.00;59.80
44435;DHT22;30138;20.964;105.830;2023-06-19T06:23:29;28.90;55.70
44435;DHT22;30138;20.964;105.830;2023-06-19T06:28:36;28.90;59.80
44435;DHT22;30138;20.964;105.830;2023-06-19T06:33:46;28.90;55.70
44435;DHT22;30138;20.964;105.830;2023-06-19T06:38:53;28.90;59.60
44435;DHT22;30138;20.964;105.830;2023-06-19T06:44:01;28.80;55.20
44435;DHT22;30138;20.964;105.830;2023-06-19T06:49:10;28.80;59.30
44435;DHT22;30138;20.964;105.830;2023-06-19T06:54:19;28.70;54.90
44435;DHT22;30138;20.964;105.830;2023-06-19T06:59:25;28.70;59.10
44435;DHT22;30138;20.964;105.830;2023-06-19T07:04:34;28.70;55.10
44435;DHT22;30138;20.964;105.830;2023-06-19T07:09:41;28.70;58.80
44435;DHT22;30138;20.964;105.830;2023-06-19T07:14:48;28.60;55.00
44435;DHT22;30138;20.964;105.830;2023-06-19T07:20:00;28.60;58.40
44435;DHT22;30138;20.964;105.830;2023-06-19T07:25:07;28.60;55.10
44435;DHT22;30138;20.964;105.830;2023-06-19T07:30:15;28.60;58.20
44435;DHT22;30138;20.964;105.830;2023-06-19T07:35:24;28.60;55.30
44435;DHT22;30138;20.964;105.830;2023-06-19T07:40:33;28.60;57.80
44435;DHT22;30138;20.964;105.830;2023-06-19T07:45:40;28.60;55.30
44435;DHT22;30138;20.964;105.830;2023-06-19T07:50:48;28.60;57.50
44435;DHT22;30138;20.964;105.830;2023-06-19T07:55:56;28.60;55.90
44435;DHT22;30138;20.964;105.830;2023-06-19T08:01:03;28.60;57.10
44435;DHT22;30138;20.964;105.830;2023-06-19T08:06:12;28.50;55.90
44435;DHT22;30138;20.964;105.830;2023-06-19T08:11:19;28.50;56.70
44435;DHT22;30138;20.964;105.830;2023-06-19T08:16:26;28.50;56.20
44435;DHT22;30138;20.964;105.830;2023-06-19T08:21:36;28.50;56.30
44435;DHT22;30138;20.964;105.830;2023-06-19T08:26:43;28.50;59.60
44435;DHT22;30138;20.964;105.830;2023-06-19T08:31:53;28.50;61.20
44435;DHT22;30138;20.964;105.830;2023-06-19T08:37:02;28.50;60.60
44435;DHT22;30138;20.964;105.830;2023-06-19T08:42:09;28.50;58.00
44435;DHT22;30138;20.964;105.830;2023-06-19T08:47:17;28.50;58.90
44435;DHT22;30138;20.964;105.830;2023-06-19T08:52:26;28.50;56.40
44435;DHT22;30138;20.964;105.830;2023-06-19T08:57:36;28.40;58.20
44435;DHT22;30138;20.964;105.830;2023-06-19T09:02:46;28.40;55.60
44435;DHT22;30138;20.964;105.830;2023-06-19T09:07:59;28.40;58.10
44435;DHT22;30138;20.964;105.830;2023-06-19T09:13:11;28.30;54.90
44435;DHT22;30138;20.964;105.830;2023-06-19T09:18:18;28.30;57.90
44435;DHT22;30138;20.964;105.830;2023-06-19T09:23:27;28.30;54.30
44435;DHT22;30138;20.964;105.830;2023-06-19T09:28:41;28.30;57.80
44435;DHT22;30138;20.964;105.830;2023-06-19T09:33:49;28.20;54.40
44435;DHT22;30138;20.964;105.830;2023-06-19T09:39:00;28.20;58.30
44435;DHT22;30138;20.964;105.830;2023-06-19T09:44:09;28.20;53.80
44435;DHT22;30138;20.964;105.830;2023-06-19T09:49:19;28.20;58.40
44435;DHT22;30138;20.964;105.830;2023-06-19T09:54:29;28.10;54.50
44435;DHT22;30138;20.964;105.830;2023-06-19T09:59:36;28.20;58.10
44435;DHT22;30138;20.964;105.830;2023-06-19T10:04:48;28.10;54.00
44435;DHT22;30138;20.964;105.830;2023-06-19T10:10:00;28.10;57.40
44435;DHT22;30138;20.964;105.830;2023-06-19T10:15:15;28.10;54.10
44435;DHT22;30138;20.964;105.830;2023-06-19T10:20:27;28.10;57.10
44435;DHT22;30138;20.964;105.830;2023-06-19T10:25:39;28.00;54.30
44435;DHT22;30138;20.964;105.830;2023-06-19T10:30:53;28.10;58.60
44435;DHT22;30138;20.964;105.830;2023-06-19T10:36:12;28.10;62.30
44435;DHT22;30138;20.964;105.830;2023-06-19T10:41:23;28.10;64.50
44435;DHT22;30138;20.964;105.830;2023-06-19T10:46:31;28.10;60.70
44435;DHT22;30138;20.964;105.830;2023-06-19T10:51:39;28.10;59.40
44435;DHT22;30138;20.964;105.830;2023-06-19T10:56:49;28.10;62.40
44435;DHT22;30138;20.964;105.830;2023-06-19T11:01:57;28.20;62.10
44435;DHT22;30138;20.964;105.830;2023-06-19T11:07:07;28.20;61.30
44435;DHT22;30138;20.964;105.830;2023-06-19T11:12:23;28.20;58.80
44435;DHT22;30138;20.964;105.830;2023-06-19T11:17:31;28.20;59.60
44435;DHT22;30138;20.964;105.830;2023-06-19T11:22:39;28.20;57.10
44435;DHT22;30138;20.964;105.830;2023-06-19T11:27:48;28.20;58.90
44435;DHT22;30138;20.964;105.830;2023-06-19T11:32:57;28.10;56.00
44435;DHT22;30138;20.964;105.830;2023-06-19T11:38:06;28.10;58.60
44435;DHT22;30138;20.964;105.830;2023-06-19T11:43:24;28.10;55.20
44435;DHT22;30138;20.964;105.830;2023-06-19T11:48:35;28.10;58.90
44435;DHT22;30138;20.964;105.830;2023-06-19T11:53:43;28.10;54.40
44435;DHT22;30138;20.964;105.830;2023-06-19T11:58:53;28.10;57.90
44435;DHT22;30138;20.964;105.830;2023-06-19T12:04:01;28.10;53.90
44435;DHT22;30138;20.964;105.830;2023-06-19T12:09:09;28.10;62.30
44435;DHT22;30138;20.964;105.830;2023-06-19T12:14:19;28.10;61.50
44435;DHT22;30138;20.964;105.830;2023-06-19T12:19:28;28.10;63.70
44435;DHT22;30138;20.964;105.830;2023-06-19T12:24:35;28.10;57.50
44435;DHT22;30138;20.964;105.830;2023-06-19T12:29:44;28.10;60.30
44435;DHT22;30138;20.964;105.830;2023-06-19T12:34:51;28.10;55.80
44435;DHT22;30138;20.964;105.830;2023-06-19T12:39:59;28.10;58.80
44435;DHT22;30138;20.964;105.830;2023-06-19T12:45:13;28.00;54.90
44435;DHT22;30138;20.964;105.830;2023-06-19T12:50:21;28.00;57.40
44435;DHT22;30138;20.964;105.830;2023-06-19T12:55:28;27.90;54.40
44435;DHT22;30138;20.964;105.830;2023-06-19T13:00:38;28.00;56.70
44435;DHT22;30138;20.964;105.830;2023-06-19T13:05:46;27.90;54.50
44435;DHT22;30138;20.964;105.830;2023-06-19T13:10:55;27.90;56.80
44435;DHT22;30138;20.964;105.830;2023-06-19T13:16:05;27.90;54.60
44435;DHT22;30138;20.964;105.830;2023-06-19T13:21:12;27.90;55.80
44435;DHT22;30138;20.964;105.830;2023-06-19T13:26:20;27.80;55.20
44435;DHT22;30138;20.964;105.830;2023-06-19T13:31:30;27.80;57.50
44435;DHT22;30138;20.964;105.830;2023-06-19T13:36:37;27.80;56.40
44435;DHT22;30138;20.964;105.830;2023-06-19T13:41:44;27.80;56.00
44435;DHT22;30138;20.964;105.830;2023-06-19T13:46:53;27.70;55.70
44435;DHT22;30138;20.964;105.830;2023-06-19T13:52:00;27.70;55.20
44435;DHT22;30138;20.964;105.830;2023-06-19T13:57:08;27.70;57.90
44435;DHT22;30138;20.964;105.830;2023-06-19T14:02:16;27.70;58.50
44435;DHT22;30138;20.964;105.830;2023-06-19T14:07:23;27.70;79.60
44435;DHT22;30138;20.964;105.830;2023-06-19T14:12:31;27.80;78.70
44435;DHT22;30138;20.964;105.830;2023-06-19T14:17:40;27.90;68.30
44435;DHT22;30138;20.964;105.830;2023-06-19T14:22:47;27.90;69.10
44435;DHT22;30138;20.964;105.830;2023-06-19T14:27:54;27.90;62.70
44435;DHT22;30138;20.964;105.830;2023-06-19T14:33:03;27.90;64.60
44435;DHT22;30138;20.964;105.830;2023-06-19T14:38:13;27.80;59.70
44435;DHT22;30138;20.964;105.830;2023-06-19T14:43:20;27.80;61.50
44435;DHT22;30138;20.964;105.830;2023-06-19T14:48:29;27.70;69.20
44435;DHT22;30138;20.964;105.830;2023-06-19T14:53:40;27.80;71.50
44435;DHT22;30138;20.964;105.830;2023-06-19T14:58:47;27.80;65.70
44435;DHT22;30138;20.964;105.830;2023-06-19T15:03:56;27.80;64.10
44435;DHT22;30138;20.964;105.830;2023-06-19T15:09:04;27.70;61.50
44435;DHT22;30138;20.964;105.830;2023-06-19T15:14:12;27.70;60.60
44435;DHT22;30138;20.964;105.830;2023-06-19T15:19:22;27.70;59.70
44435;DHT22;30138;20.964;105.830;2023-06-19T15:24:29;27.60;58.60
44435;DHT22;30138;20.964;105.830;2023-06-19T15:29:37;27.60;58.60
44435;DHT22;30138;20.964;105.830;2023-06-19T15:34:47;27.60;57.50
44435;DHT22;30138;20.964;105.830;2023-06-19T15:39:54;27.60;58.60
44435;DHT22;30138;20.964;105.830;2023-06-19T15:45:04;27.50;56.80
44435;DHT22;30138;20.964;105.830;2023-06-19T15:50:13;27.50;58.10
44435;DHT22;30138;20.964;105.830;2023-06-19T15:55:21;27.50;56.20
44435;DHT22;30138;20.964;105.830;2023-06-19T16:00:29;27.50;64.80
44435;DHT22;30138;20.964;105.830;2023-06-19T16:05:39;27.50;59.80
44435;DHT22;30138;20.964;105.830;2023-06-19T16:10:46;27.50;61.80
44435;DHT22;30138;20.964;105.830;2023-06-19T16:16:11;27.50;57.40
44435;DHT22;30138;20.964;105.830;2023-06-19T16:21:21;27.50;60.30
44435;DHT22;30138;20.964;105.830;2023-06-19T16:26:31;27.50;55.90
44435;DHT22;30138;20.964;105.830;2023-06-19T16:31:38;27.50;59.30
44435;DHT22;30138;20.964;105.830;2023-06-19T16:36:47;27.50;55.70
44435;DHT22;30138;20.964;105.830;2023-06-19T16:41:55;27.50;58.80
44435;DHT22;30138;20.964;105.830;2023-06-19T16:47:03;27.50;54.60
44435;DHT22;30138;20.964;105.830;2023-06-19T16:52:13;27.50;58.30
44435;DHT22;30138;20.964;105.830;2023-06-19T16:57:21;27.40;54.40
44435;DHT22;30138;20.964;105.830;2023-06-19T17:02:30;27.40;57.80
44435;DHT22;30138;20.964;105.830;2023-06-19T17:07:39;27.40;54.10
44435;DHT22;30138;20.964;105.830;2023-06-19T17:12:48;27.40;57.30
44435;DHT22;30138;20.964;105.830;2023-06-19T17:17:56;27.40;54.70
44435;DHT22;30138;20.964;105.830;2023-06-19T17:23:06;27.40;59.70
44435;DHT22;30138;20.964;105.830;2023-06-19T17:28:13;27.30;57.10
44435;DHT22;30138;20.964;105.830;2023-06-19T17:33:20;27.50;58.60
44435;DHT22;30138;20.964;105.830;2023-06-19T17:38:29;27.70;59.60
44435;DHT22;30138;20.964;105.830;2023-06-19T17:43:37;27.80;60.40
44435;DHT22;30138;20.964;105.830;2023-06-19T17:48:44;28.00;61.40
44435;DHT22;30138;20.964;105.830;2023-06-19T17:53:54;28.10;62.10
44435;DHT22;30138;20.964;105.830;2023-06-19T17:59:01;28.20;62.80
44435;DHT22;30138;20.964;105.830;2023-06-19T18:04:09;28.30;63.50
44435;DHT22;30138;20.964;105.830;2023-06-19T18:09:18;28.40;64.10
44435;DHT22;30138;20.964;105.830;2023-06-19T18:14:26;28.50;64.70
44435;DHT22;30138;20.964;105.830;2023-06-19T18:19:33;28.60;65.20
44435;DHT22;30138;20.964;105.830;2023-06-19T18:24:44;28.60;65.70
44435;DHT22;30138;20.964;105.830;2023-06-19T18:29:52;28.70;66.20
44435;DHT22;30138;20.964;105.830;2023-06-19T18:34:59;28.70;66.80
44435;DHT22;30138;20.964;105.830;2023-06-19T18:40:09;28.80;67.20
44435;DHT22;30138;20.964;105.830;2023-06-19T18:45:17;28.90;67.60
44435;DHT22;30138;20.964;105.830;2023-06-19T18:50:24;28.90;68.00
44435;DHT22;30138;20.964;105.830;2023-06-19T18:55:34;28.90;68.30
44435;DHT22;30138;20.964;105.830;2023-06-19T19:00:44;29.00;68.70
44435;DHT22;30138;20.964;105.830;2023-06-19T19:05:51;29.00;69.00
44435;DHT22;30138;20.964;105.830;2023-06-19T19:11:01;29.00;69.30
44435;DHT22;30138;20.964;105.830;2023-06-19T19:16:08;29.10;69.80
44435;DHT22;30138;20.964;105.830;2023-06-19T19:21:15;29.20;70.10
44435;DHT22;30138;20.964;105.830;2023-06-19T19:26:25;29.20;70.50
44435;DHT22;30138;20.964;105.830;2023-06-19T19:31:32;29.20;70.70
44435;DHT22;30138;20.964;105.830;2023-06-19T19:36:40;29.20;71.00
44435;DHT22;30138;20.964;105.830;2023-06-19T19:41:51;29.30;71.30
44435;DHT22;30138;20.964;105.830;2023-06-19T19:46:59;29.30;71.50
44435;DHT22;30138;20.964;105.830;2023-06-19T19:52:07;29.30;71.80
44435;DHT22;30138;20.964;105.830;2023-06-19T19:57:17;29.30;72.00
44435;DHT22;30138;20.964;105.830;2023-06-19T20:02:24;29.30;72.30
44435;DHT22;30138;20.964;105.830;2023-06-19T20:07:31;29.40;72.60
44435;DHT22;30138;20.964;105.830;2023-06-19T20:12:40;29.40;73.00
44435;DHT22;30138;20.964;105.830;2023-06-19T20:17:47;29.40;73.20
44435;DHT22;30138;20.964;105.830;2023-06-19T20:22:54;29.40;73.30
44435;DHT22;30138;20.964;105.830;2023-06-19T20:28:03;29.50;73.70
44435;DHT22;30138;20.964;105.830;2023-06-19T20:33:10;29.50;73.90
44435;DHT22;30138;20.964;105.830;2023-06-19T20:38:17;29.50;74.00
44435;DHT22;30138;20.964;105.830;2023-06-19T20:43:26;29.50;74.10
44435;DHT22;30138;20.964;105.830;2023-06-19T20:48:33;29.50;74.30
44435;DHT22;30138;20.964;105.830;2023-06-19T20:53:41;29.60;74.50
44435;DHT22;30138;20.964;105.830;2023-06-19T20:58:49;29.60;74.70
44435;DHT22;30138;20.964;105.830;2023-06-19T21:03:59;29.60;74.90
44435;DHT22;30138;20.964;105.830;2023-06-19T21:09:06;29.60;75.10
44435;DHT22;30138;20.964;105.830;2023-06-19T21:14:15;29.60;75.30
44435;DHT22;30138;20.964;105.830;2023-06-19T21:19:21;29.60;75.40
44435;DHT22;30138;20.964;105.830;2023-06-19T21:24:29;29.70;75.70
44435;DHT22;30138;20.964;105.830;2023-06-19T21:29:39;29.70;75.80
44435;DHT22;30138;20.964;105.830;2023-06-19T21:34:46;29.70;76.10
44435;DHT22;30138;20.964;105.830;2023-06-19T21:39:53;29.70;76.30
44435;DHT22;30138;20.964;105.830;2023-06-19T21:45:02;29.70;76.40
44435;DHT22;30138;20.964;105.830;2023-06-19T21:50:10;29.70;76.60
44435;DHT22;30138;20.964;105.830;2023-06-19T21:55:16;29.70;76.80
44435;DHT22;30138;20.964;105.830;2023-06-19T22:00:28;29.70;77.00
44435;DHT22;30138;20.964;105.830;2023-06-19T22:05:38;29.70;77.10
44435;DHT22;30138;20.964;105.830;2023-06-19T22:10:47;29.70;77.30
44435;DHT22;30138;20.964;105.830;2023-06-19T22:15:56;29.70;77.50
44435;DHT22;30138;20.964;105.830;2023-06-19T22:21:03;29.70;77.60
44435;DHT22;30138;20.964;105.830;2023-06-19T22:26:13;29.70;77.80
44435;DHT22;30138;20.964;105.830;2023-06-19T22:31:25;29.80;78.00
44435;DHT22;30138;20.964;105.830;2023-06-19T22:36:32;29.80;78.10
44435;DHT22;30138;20.964;105.830;2023-06-19T22:41:41;29.80;78.20
44435;DHT22;30138;20.964;105.830;2023-06-19T22:46:50;29.80;78.40
44435;DHT22;30138;20.964;105.830;2023-06-19T22:51:59;29.80;78.50
44435;DHT22;30138;20.964;105.830;2023-06-19T22:57:06;29.80;78.70
44435;DHT22;30138;20.964;105.830;2023-06-19T23:02:17;29.80;78.80
44435;DHT22;30138;20.964;105.830;2023-06-19T23:07:24;29.90;79.10
44435;DHT22;30138;20.964;105.830;2023-06-19T23:12:34;29.90;79.10
44435;DHT22;30138;20.964;105.830;2023-06-19T23:17:45;29.80;79.20
44435;DHT22;30138;20.964;105.830;2023-06-19T23:22:56;29.90;79.50
44435;DHT22;30138;20.964;105.830;2023-06-19T23:28:03;29.90;79.70
44435;DHT22;30138;20.964;105.830;2023-06-19T23:33:13;29.90;79.80
44435;DHT22;30138;20.964;105.830;2023-06-19T23:38:20;29.90;79.90
44435;DHT22;30138;20.964;105.830;2023-06-19T23:43:29;29.90;80.10
44435;DHT22;30138;20.964;105.830;2023-06-19T23:48:38;29.90;80.20
44435;DHT22;30138;20.964;105.830;2023-06-19T23:53:46;30.00;80.40
44435;DHT22;30138;20.964;105.830;2023-06-19T23:58:58;30.00;80.40
